createdAt,value
2022-10-18T00:00:01.873Z,102003.59
2022-10-18T00:00:15.274Z,102010.78
2022-10-18T00:00:48.276Z,102015.22
2022-10-18T00:01:21.413Z,102008.09
2022-10-18T00:01:34.358Z,102003.72
2022-10-18T00:01:47.266Z,102007.38
2022-10-18T00:01:59.968Z,102003.72
2022-10-18T00:02:12.806Z,102003.72
2022-10-18T00:02:25.702Z,102005.66
2022-10-18T00:02:38.462Z,102002.97
2022-10-18T00:02:51.232Z,102005.66
2022-10-18T00:03:05.053Z,102007.38
2022-10-18T00:03:17.683Z,102005.66
2022-10-18T00:03:30.529Z,102003.81
2022-10-18T00:04:01.315Z,102002.97
2022-10-18T00:04:14.191Z,102008.34
2022-10-18T00:04:27.827Z,102007.50
2022-10-18T00:04:40.574Z,102010.19
2022-10-18T00:04:53.215Z,102004.81
2022-10-18T00:05:06.286Z,102007.50
2022-10-18T00:05:19.011Z,101999.44
2022-10-18T00:05:31.809Z,102004.81
2022-10-18T00:05:44.405Z,102003.94
2022-10-18T00:05:58.617Z,102001.22
2022-10-18T00:06:11.514Z,102010.19
2022-10-18T00:06:24.400Z,102004.06
2022-10-18T00:06:39.840Z,102006.75
2022-10-18T00:06:55.419Z,102009.31
2022-10-18T00:07:08.369Z,102002.22
2022-10-18T00:07:22.005Z,102000.50
2022-10-18T00:07:34.654Z,102004.16
2022-10-18T00:07:47.331Z,102005.88
2022-10-18T00:08:00.364Z,102001.47
2022-10-18T00:08:13.023Z,101999.63
2022-10-18T00:08:26.340Z,102000.50
2022-10-18T00:08:40.796Z,102006.00
2022-10-18T00:08:53.465Z,102004.16
2022-10-18T00:09:06.179Z,102007.94
2022-10-18T00:09:18.846Z,102002.47
2022-10-18T00:09:31.716Z,102002.47
2022-10-18T00:09:44.382Z,102001.59
2022-10-18T00:09:56.974Z,102005.16
2022-10-18T00:10:11.501Z,102008.69
2022-10-18T00:10:24.683Z,102003.44
2022-10-18T00:10:37.291Z,102004.28
2022-10-18T00:10:50.259Z,102006.13
2022-10-18T00:11:03.131Z,102001.72
2022-10-18T00:11:15.834Z,101999.03
2022-10-18T00:11:29.449Z,102003.53
2022-10-18T00:11:42.132Z,102002.69
2022-10-18T00:11:55.174Z,101998.28
2022-10-18T00:12:08.497Z,102003.78
2022-10-18T00:12:21.179Z,102007.31
2022-10-18T00:12:36.621Z,102001.94
2022-10-18T00:12:49.372Z,102002.91
2022-10-18T00:13:03.019Z,102003.78
2022-10-18T00:13:16.092Z,101997.53
2022-10-18T00:13:28.745Z,102000.22
2022-10-18T00:13:41.434Z,101994.97
2022-10-18T00:13:56.040Z,102005.72
2022-10-18T00:14:08.775Z,101998.50
2022-10-18T00:14:21.443Z,102004.00
2022-10-18T00:14:34.121Z,102004.00
2022-10-18T00:14:50.767Z,102005.97
2022-10-18T00:15:05.249Z,102001.44
2022-10-18T00:15:18.851Z,102007.66
2022-10-18T00:15:31.520Z,101995.19
2022-10-18T00:15:49.764Z,102000.59
2022-10-18T00:16:06.209Z,102000.59
2022-10-18T00:16:20.383Z,102003.28
2022-10-18T00:16:33.056Z,101998.84
2022-10-18T00:16:45.698Z,101991.88
2022-10-18T00:16:58.351Z,102002.53
2022-10-18T00:17:10.975Z,101990.88
2022-10-18T00:17:23.781Z,102001.63
2022-10-18T00:17:36.873Z,102001.63
2022-10-18T00:17:50.587Z,102002.63
2022-10-18T00:18:03.640Z,101995.41
2022-10-18T00:18:16.299Z,101998.22
2022-10-18T00:18:29.187Z,101992.81
2022-10-18T00:18:42.804Z,101998.22
2022-10-18T00:18:55.430Z,101994.56
2022-10-18T00:19:08.044Z,101994.56
2022-10-18T00:19:24.745Z,101993.81
2022-10-18T00:19:40.018Z,101998.22
2022-10-18T00:19:52.755Z,101999.19
2022-10-18T00:20:06.828Z,102000.28
2022-10-18T00:20:19.773Z,101996.59
2022-10-18T00:20:32.422Z,101999.31
2022-10-18T00:20:45.606Z,101993.06
2022-10-18T00:21:01.360Z,101994.06
2022-10-18T00:21:16.640Z,101996.75
2022-10-18T00:21:29.331Z,101992.31
2022-10-18T00:21:42.315Z,101998.69
2022-10-18T00:21:54.942Z,101994.16
2022-10-18T00:22:07.579Z,101996.00
2022-10-18T00:22:21.235Z,101997.81
2022-10-18T00:22:35.232Z,102006.75
2022-10-18T00:22:47.903Z,101996.09
2022-10-18T00:23:00.496Z,101997.94
2022-10-18T00:23:13.083Z,101997.81
2022-10-18T00:23:26.262Z,101994.16
2022-10-18T00:23:40.196Z,101999.66
2022-10-18T00:23:53.810Z,101998.69
2022-10-18T00:24:07.292Z,102003.19
2022-10-18T00:24:19.985Z,101994.28
2022-10-18T00:24:32.627Z,102001.47
2022-10-18T00:24:45.326Z,102003.44
2022-10-18T00:24:58.971Z,102005.03
2022-10-18T00:25:11.619Z,102006.88
2022-10-18T00:25:24.242Z,102008.69
2022-10-18T00:25:36.880Z,102004.28
2022-10-18T00:25:49.562Z,102006.97
2022-10-18T00:26:04.795Z,102006.00
2022-10-18T00:26:20.019Z,102004.28
2022-10-18T00:26:33.731Z,102002.44
2022-10-18T00:26:46.374Z,102009.66
2022-10-18T00:26:59.013Z,102009.66
2022-10-18T00:27:11.744Z,102007.94
2022-10-18T00:27:24.473Z,102003.44
2022-10-18T00:27:38.464Z,102005.25
2022-10-18T00:27:51.065Z,102007.09
2022-10-18T00:28:04.778Z,102007.94
2022-10-18T00:28:17.469Z,102005.25
2022-10-18T00:28:30.925Z,102004.28
2022-10-18T00:28:45.030Z,102007.94
2022-10-18T00:28:59.795Z,102007.94
2022-10-18T00:29:14.311Z,102004.41
2022-10-18T00:29:26.944Z,102000.84
2022-10-18T00:29:40.608Z,102004.53
2022-10-18T00:29:53.532Z,102002.78
2022-10-18T00:30:07.133Z,102001.94
2022-10-18T00:30:19.824Z,102002.78
2022-10-18T00:30:32.454Z,102003.78
2022-10-18T00:30:45.431Z,101999.47
2022-10-18T00:30:58.505Z,101997.66
2022-10-18T00:31:13.808Z,102003.03
2022-10-18T00:31:30.495Z,102005.72
2022-10-18T00:31:44.577Z,102003.88
2022-10-18T00:31:57.213Z,102000.34
2022-10-18T00:32:12.026Z,101998.59
2022-10-18T00:32:25.049Z,101998.59
2022-10-18T00:32:38.159Z,102006.66
2022-10-18T00:32:50.991Z,102002.28
2022-10-18T00:33:03.769Z,102010.34
2022-10-18T00:33:16.404Z,102005.81
2022-10-18T00:33:30.039Z,101997.88
2022-10-18T00:33:43.825Z,102002.28
2022-10-18T00:33:59.069Z,101997.88
2022-10-18T00:34:14.887Z,102006.81
2022-10-18T00:34:27.615Z,102005.94
2022-10-18T00:34:40.367Z,102006.81
2022-10-18T00:34:53.015Z,102010.34
2022-10-18T00:35:08.337Z,102005.94
2022-10-18T00:35:20.991Z,102004.13
2022-10-18T00:35:35.108Z,102003.25
2022-10-18T00:35:47.703Z,102005.06
2022-10-18T00:36:00.718Z,102005.06
2022-10-18T00:36:14.257Z,102008.75
2022-10-18T00:36:29.157Z,102006.91
2022-10-18T00:36:43.467Z,102003.25
2022-10-18T00:36:56.147Z,102009.59
2022-10-18T00:37:09.177Z,102002.50
2022-10-18T00:37:21.845Z,102003.38
2022-10-18T00:37:35.159Z,102007.91
2022-10-18T00:37:48.880Z,102006.06
2022-10-18T00:38:01.569Z,102004.31
2022-10-18T00:38:14.177Z,102009.69
2022-10-18T00:38:26.788Z,102008.00
2022-10-18T00:38:39.899Z,102008.84
2022-10-18T00:38:52.529Z,102005.31
2022-10-18T00:39:08.487Z,102005.41
2022-10-18T00:39:21.996Z,102010.69
2022-10-18T00:39:34.855Z,102007.16
2022-10-18T00:39:47.560Z,102007.16
2022-10-18T00:40:00.419Z,102014.31
2022-10-18T00:40:13.066Z,102007.16
2022-10-18T00:40:25.667Z,102005.41
2022-10-18T00:40:38.347Z,102004.47
2022-10-18T00:40:51.971Z,102014.31
2022-10-18T00:41:05.615Z,102005.41
2022-10-18T00:41:21.199Z,102006.25
2022-10-18T00:41:36.539Z,102006.41
2022-10-18T00:41:50.176Z,102005.41
2022-10-18T00:42:04.510Z,102008.94
2022-10-18T00:42:18.169Z,102006.25
2022-10-18T00:42:33.895Z,102006.41
2022-10-18T00:42:48.173Z,102006.41
2022-10-18T00:43:00.833Z,102005.50
2022-10-18T00:43:16.549Z,102003.81
2022-10-18T00:43:29.195Z,102005.66
2022-10-18T00:43:57.652Z,102003.91
2022-10-18T00:44:43.308Z,102003.91
2022-10-18T00:45:17.253Z,101999.63
2022-10-18T00:45:31.187Z,102003.31
2022-10-18T00:45:43.809Z,102001.56
2022-10-18T00:45:56.472Z,102006.94
2022-10-18T00:46:09.074Z,102004.34
2022-10-18T00:46:22.054Z,102005.34
2022-10-18T00:46:36.702Z,102004.34
2022-10-18T00:46:50.356Z,101998.13
2022-10-18T00:47:07.386Z,102002.66
2022-10-18T00:47:21.717Z,101995.34
2022-10-18T00:47:35.970Z,102003.41
2022-10-18T00:47:53.177Z,101998.97
2022-10-18T00:48:05.886Z,101996.28
2022-10-18T00:48:20.921Z,101998.97
2022-10-18T00:48:34.542Z,101997.28
2022-10-18T00:48:47.676Z,102003.50
2022-10-18T00:49:03.003Z,101999.97
2022-10-18T00:49:18.654Z,101996.28
2022-10-18T00:49:35.487Z,101994.50
2022-10-18T00:49:52.579Z,101997.28
2022-10-18T00:50:08.014Z,101996.28
2022-10-18T00:50:24.024Z,102001.66
2022-10-18T00:50:37.023Z,101999.97
2022-10-18T00:50:51.269Z,101995.44
2022-10-18T00:51:04.146Z,101996.44
2022-10-18T00:51:19.233Z,102000.06
2022-10-18T00:51:36.408Z,101992.16
2022-10-18T00:51:53.675Z,102006.53
2022-10-18T00:52:09.896Z,101998.47
2022-10-18T00:52:29.205Z,102003.94
2022-10-18T00:52:45.835Z,101993.19
2022-10-18T00:53:02.498Z,101997.72
2022-10-18T00:53:18.170Z,101994.28
2022-10-18T00:53:30.803Z,101994.28
2022-10-18T00:53:43.584Z,102007.72
2022-10-18T00:53:56.315Z,102001.50
2022-10-18T00:54:09.931Z,102002.34
2022-10-18T00:54:23.595Z,102001.50
2022-10-18T00:54:39.265Z,101998.81
2022-10-18T00:54:53.352Z,101997.97
2022-10-18T00:55:07.312Z,101993.44
2022-10-18T00:55:20.524Z,101999.66
2022-10-18T00:55:34.306Z,101996.88
2022-10-18T00:55:48.699Z,101991.50
2022-10-18T00:56:01.453Z,101992.34
2022-10-18T00:56:14.565Z,101991.59
2022-10-18T00:56:27.359Z,101994.28
2022-10-18T00:56:40.086Z,102002.25
2022-10-18T00:56:52.823Z,101997.72
2022-10-18T00:57:06.413Z,101989.75
2022-10-18T00:57:19.393Z,101992.34
2022-10-18T00:57:33.468Z,101994.19
2022-10-18T00:57:46.834Z,101995.03
2022-10-18T00:58:04.693Z,101989.66
2022-10-18T00:58:19.879Z,101994.19
2022-10-18T00:58:32.668Z,102003.09
2022-10-18T00:58:47.696Z,101997.72
2022-10-18T00:59:01.727Z,101992.34
2022-10-18T00:59:16.200Z,101995.03
2022-10-18T00:59:30.134Z,101993.19
2022-10-18T00:59:44.352Z,101992.34
2022-10-18T00:59:57.095Z,102001.41
2022-10-18T01:00:11.808Z,101992.59
2022-10-18T01:00:25.722Z,101991.59
2022-10-18T01:00:39.465Z,102001.41
2022-10-18T01:00:52.302Z,101996.03
2022-10-18T01:01:06.145Z,102005.03
2022-10-18T01:01:18.875Z,101997.09
2022-10-18T01:01:31.714Z,101997.97
2022-10-18T01:01:46.122Z,101998.91
2022-10-18T01:01:58.965Z,102002.47
2022-10-18T01:02:14.945Z,101986.47
2022-10-18T01:02:29.028Z,101998.06
2022-10-18T01:02:43.796Z,102001.59
2022-10-18T01:02:59.551Z,102003.44
2022-10-18T01:03:12.270Z,101994.53
2022-10-18T01:03:25.026Z,101991.94
2022-10-18T01:03:38.394Z,101999.91
2022-10-18T01:03:52.632Z,101998.91
2022-10-18T01:04:05.331Z,102002.59
2022-10-18T01:04:19.455Z,101997.22
2022-10-18T01:04:32.106Z,101996.22
2022-10-18T01:04:49.113Z,101998.06
2022-10-18T01:05:01.821Z,101993.53
2022-10-18T01:05:16.719Z,101990.84
2022-10-18T01:05:29.406Z,101992.59
2022-10-18T01:05:45.741Z,101997.97
2022-10-18T01:05:58.420Z,101992.59
2022-10-18T01:06:12.103Z,101986.34
2022-10-18T01:06:28.205Z,101986.34
2022-10-18T01:06:51.562Z,101996.22
2022-10-18T01:07:12.835Z,101993.53
2022-10-18T01:07:42.950Z,101990.00
2022-10-18T01:08:23.546Z,101985.72
2022-10-18T01:08:57.926Z,101997.41
2022-10-18T01:09:18.061Z,101999.25
2022-10-18T01:09:38.831Z,101994.97
2022-10-18T01:09:59.672Z,101999.34
2022-10-18T01:10:25.678Z,101994.84
2022-10-18T01:10:50.118Z,101992.16
2022-10-18T01:11:24.645Z,101998.41
2022-10-18T01:11:51.015Z,101988.59
2022-10-18T01:12:14.680Z,101993.97
2022-10-18T01:12:40.629Z,101989.59
2022-10-18T01:13:10.697Z,101995.81
2022-10-18T01:13:36.555Z,101993.25
2022-10-18T01:14:07.716Z,101992.38
2022-10-18T01:14:34.883Z,101998.72
2022-10-18T01:15:04.203Z,101993.34
2022-10-18T01:15:25.894Z,101991.63
2022-10-18T01:15:47.813Z,101999.81
2022-10-18T01:16:06.166Z,101989.06
2022-10-18T01:16:26.765Z,101990.88
2022-10-18T01:16:49.559Z,101991.97
2022-10-18T01:17:09.657Z,101991.00
2022-10-18T01:17:29.686Z,101990.25
2022-10-18T01:17:51.897Z,101990.25
2022-10-18T01:18:11.153Z,101992.19
2022-10-18T01:18:27.717Z,101994.97
2022-10-18T01:18:54.642Z,101994.97
2022-10-18T01:19:21.022Z,101998.41
2022-10-18T01:20:19.748Z,101993.16
2022-10-18T01:21:14.639Z,101993.03
2022-10-18T01:21:38.155Z,101992.19
2022-10-18T01:21:57.920Z,101990.47
2022-10-18T01:22:17.424Z,101997.66
2022-10-18T01:22:36.435Z,101994.13
2022-10-18T01:22:54.755Z,101996.81
2022-10-18T01:23:13.571Z,101993.16
2022-10-18T01:23:40.199Z,101985.09
2022-10-18T01:24:14.381Z,101996.81
2022-10-18T01:24:54.551Z,101999.50
2022-10-18T01:25:20.525Z,101993.38
2022-10-18T01:25:44.903Z,101994.47
2022-10-18T01:26:09.239Z,101989.94
2022-10-18T01:26:37.891Z,101991.78
2022-10-18T01:27:18.035Z,101994.56
2022-10-18T01:27:47.560Z,101996.50
2022-10-18T01:28:14.439Z,102001.03
2022-10-18T01:28:40.886Z,101994.78
2022-10-18T01:29:14.415Z,102002.72
2022-10-18T01:29:39.916Z,102002.84
2022-10-18T01:30:09.208Z,102007.25
2022-10-18T01:30:38.185Z,102001.88
2022-10-18T01:30:55.166Z,102001.88
2022-10-18T01:31:13.291Z,102006.41
2022-10-18T01:31:33.016Z,102008.97
2022-10-18T01:31:48.209Z,102003.72
2022-10-18T01:32:03.565Z,102007.25
2022-10-18T01:32:19.750Z,102003.72
2022-10-18T01:32:37.669Z,102004.66
2022-10-18T01:32:54.340Z,102008.22
2022-10-18T01:33:17.265Z,102004.66
2022-10-18T01:33:37.658Z,102007.47
2022-10-18T01:33:53.846Z,102008.31
2022-10-18T01:34:10.287Z,102008.31
2022-10-18T01:34:28.901Z,102012.84
2022-10-18T01:34:45.608Z,102004.78
2022-10-18T01:35:02.053Z,102011.00
2022-10-18T01:35:18.155Z,102006.50
2022-10-18T01:35:35.153Z,102009.19
2022-10-18T01:35:52.413Z,102008.31
2022-10-18T01:36:10.449Z,102002.09
2022-10-18T01:36:29.093Z,102008.31
2022-10-18T01:36:47.059Z,102003.81
2022-10-18T01:37:02.124Z,102001.22
2022-10-18T01:37:18.447Z,102002.09
2022-10-18T01:37:33.481Z,102006.59
2022-10-18T01:37:49.357Z,102008.44
2022-10-18T01:38:07.784Z,102005.00
2022-10-18T01:38:23.963Z,102008.56
2022-10-18T01:38:38.905Z,102008.56
2022-10-18T01:38:54.411Z,102008.44
2022-10-18T01:39:12.051Z,102006.72
2022-10-18T01:39:29.594Z,102006.72
2022-10-18T01:39:46.234Z,102011.25
2022-10-18T01:40:03.625Z,102005.00
2022-10-18T01:40:20.081Z,102002.31
2022-10-18T01:40:35.356Z,102001.44
2022-10-18T01:40:51.277Z,102009.50
2022-10-18T01:41:13.084Z,102003.28
2022-10-18T01:41:29.111Z,102007.91
2022-10-18T01:41:44.657Z,102007.06
2022-10-18T01:42:01.614Z,102006.16
2022-10-18T01:42:18.960Z,102000.81
2022-10-18T01:42:32.468Z,102005.31
2022-10-18T01:42:47.918Z,102009.84
2022-10-18T01:43:02.888Z,102004.47
2022-10-18T01:43:17.881Z,102004.56
2022-10-18T01:43:33.849Z,101997.50
2022-10-18T01:43:50.498Z,102001.03
2022-10-18T01:44:07.231Z,101998.34
2022-10-18T01:44:25.153Z,102002.72
2022-10-18T01:44:39.380Z,101998.34
2022-10-18T01:44:54.232Z,102002.00
2022-10-18T01:45:09.231Z,101998.34
2022-10-18T01:45:24.316Z,102001.03
2022-10-18T01:45:38.703Z,101999.31
2022-10-18T01:45:53.963Z,101997.59
2022-10-18T01:46:10.459Z,101999.31
2022-10-18T01:46:25.427Z,101997.59
2022-10-18T01:46:41.483Z,101997.59
2022-10-18T01:46:57.195Z,101997.59
2022-10-18T01:47:13.408Z,101995.75
2022-10-18T01:47:27.200Z,101997.59
2022-10-18T01:47:41.145Z,101997.59
2022-10-18T01:47:56.413Z,102000.28
2022-10-18T01:48:10.735Z,101998.44
2022-10-18T01:48:23.766Z,101996.75
2022-10-18T01:48:38.101Z,101990.53
2022-10-18T01:48:52.220Z,101992.31
2022-10-18T01:49:06.216Z,101994.06
2022-10-18T01:49:18.924Z,101989.53
2022-10-18T01:49:33.374Z,101993.06
2022-10-18T01:49:46.537Z,101994.91
2022-10-18T01:50:00.242Z,101992.22
2022-10-18T01:50:13.581Z,102001.13
2022-10-18T01:50:30.326Z,101999.31
2022-10-18T01:50:42.945Z,101997.59
2022-10-18T01:50:56.551Z,101993.97
2022-10-18T01:51:09.366Z,101995.75
2022-10-18T01:51:24.853Z,101990.53
2022-10-18T01:51:37.490Z,101993.06
2022-10-18T01:51:50.099Z,101993.97
2022-10-18T01:52:03.148Z,101996.66
2022-10-18T01:52:17.658Z,101992.22
2022-10-18T01:52:31.476Z,101996.66
2022-10-18T01:52:49.302Z,101995.75
2022-10-18T01:53:02.495Z,101987.94
2022-10-18T01:53:28.171Z,101997.59
2022-10-18T01:53:42.005Z,101992.22
2022-10-18T01:53:54.979Z,101995.88
2022-10-18T01:54:07.710Z,101995.00
2022-10-18T01:54:27.425Z,101992.31
2022-10-18T01:54:43.459Z,101988.78
2022-10-18T01:54:56.622Z,101994.16
2022-10-18T01:55:09.663Z,101994.16
2022-10-18T01:55:27.622Z,101992.44
2022-10-18T01:55:46.984Z,101991.56
2022-10-18T01:56:20.945Z,101989.75
2022-10-18T01:56:47.615Z,101996.09
2022-10-18T01:57:06.737Z,101993.41
2022-10-18T01:57:26.161Z,101991.69
2022-10-18T01:57:41.727Z,101993.50
2022-10-18T01:58:03.594Z,101992.66
2022-10-18T01:58:22.751Z,101990.94
2022-10-18T01:58:41.073Z,101996.31
2022-10-18T01:59:03.963Z,101985.66
2022-10-18T01:59:34.726Z,101990.19
2022-10-18T01:59:56.449Z,101992.88
2022-10-18T02:00:15.018Z,102000.19
2022-10-18T02:00:35.864Z,101994.81
2022-10-18T02:00:56.020Z,101998.44
2022-10-18T02:01:18.836Z,101996.75
2022-10-18T02:01:37.970Z,102001.25
2022-10-18T02:02:00.033Z,102002.31
2022-10-18T02:02:24.974Z,101999.63
2022-10-18T02:02:47.324Z,102000.84
2022-10-18T02:03:05.718Z,102001.69
2022-10-18T02:03:23.156Z,101992.88
2022-10-18T02:03:43.689Z,102002.75
2022-10-18T02:04:04.677Z,102002.75
2022-10-18T02:04:24.200Z,102001.88
2022-10-18T02:04:45.426Z,102006.41
2022-10-18T02:05:03.343Z,102001.88
2022-10-18T02:05:25.192Z,102006.41
2022-10-18T02:05:44.148Z,102002.75
2022-10-18T02:06:01.875Z,102007.25
2022-10-18T02:06:21.369Z,102001.03
2022-10-18T02:06:41.477Z,102000.28
2022-10-18T02:07:01.895Z,102007.38
2022-10-18T02:07:23.851Z,102006.50
2022-10-18T02:07:42.512Z,101998.44
2022-10-18T02:08:18.932Z,102008.31
2022-10-18T02:08:38.635Z,102012.00
2022-10-18T02:08:59.545Z,102005.78
2022-10-18T02:09:19.071Z,102003.94
2022-10-18T02:09:39.504Z,102008.31
2022-10-18T02:10:02.330Z,102004.78
2022-10-18T02:10:24.296Z,102005.78
2022-10-18T02:10:41.938Z,102007.47
2022-10-18T02:10:59.916Z,102010.16
2022-10-18T02:11:15.896Z,102005.66
2022-10-18T02:11:32.393Z,102002.97
2022-10-18T02:11:47.598Z,102006.50
2022-10-18T02:12:02.615Z,102004.69
2022-10-18T02:12:16.911Z,102003.72
2022-10-18T02:12:33.746Z,102005.44
2022-10-18T02:12:48.303Z,102011.66
2022-10-18T02:13:02.142Z,102004.56
2022-10-18T02:13:17.423Z,102009.00
2022-10-18T02:13:35.009Z,102012.53
2022-10-18T02:13:50.872Z,102007.16
2022-10-18T02:14:09.484Z,102012.53
2022-10-18T02:14:25.483Z,102007.06
2022-10-18T02:14:39.923Z,102011.56
2022-10-18T02:14:54.034Z,102007.06
2022-10-18T02:15:10.075Z,102007.06
2022-10-18T02:15:26.749Z,102007.91
2022-10-18T02:15:45.468Z,102015.00
2022-10-18T02:16:06.038Z,102006.22
2022-10-18T02:16:21.699Z,102008.88
2022-10-18T02:16:39.227Z,101999.09
2022-10-18T02:16:55.748Z,102002.53
2022-10-18T02:17:11.703Z,102008.00
2022-10-18T02:17:30.471Z,102006.22
2022-10-18T02:17:44.537Z,102006.22
2022-10-18T02:18:00.324Z,102004.47
2022-10-18T02:18:19.186Z,102002.63
2022-10-18T02:18:36.689Z,102008.00
2022-10-18T02:18:55.249Z,102000.84
2022-10-18T02:19:15.804Z,102008.88
2022-10-18T02:19:36.665Z,102005.31
2022-10-18T02:19:54.152Z,102004.47
2022-10-18T02:20:10.108Z,101993.72
2022-10-18T02:20:26.045Z,102004.47
2022-10-18T02:20:41.008Z,102004.47
2022-10-18T02:20:55.047Z,102004.47
2022-10-18T02:21:10.903Z,102004.47
2022-10-18T02:21:26.265Z,102001.78
2022-10-18T02:21:41.210Z,102005.31
2022-10-18T02:21:57.498Z,102000.09
2022-10-18T02:22:13.281Z,102001.88
2022-10-18T02:22:31.800Z,102002.75
2022-10-18T02:22:46.099Z,102005.53
2022-10-18T02:23:00.739Z,102004.47
2022-10-18T02:23:15.374Z,101999.09
2022-10-18T02:23:28.192Z,102001.78
2022-10-18T02:23:41.920Z,102005.31
2022-10-18T02:23:55.879Z,102001.78
2022-10-18T02:24:10.103Z,102002.63
2022-10-18T02:24:30.544Z,102001.69
2022-10-18T02:24:46.407Z,102008.88
2022-10-18T02:25:09.940Z,102002.63
2022-10-18T02:25:26.210Z,102009.66
2022-10-18T02:25:39.463Z,102006.22
2022-10-18T02:25:53.026Z,101999.09
2022-10-18T02:26:07.934Z,101997.25
2022-10-18T02:26:20.746Z,101996.41
2022-10-18T02:26:33.928Z,101998.16
2022-10-18T02:26:47.315Z,101999.09
2022-10-18T02:27:00.059Z,102000.94
2022-10-18T02:27:13.982Z,102000.09
2022-10-18T02:27:26.835Z,102002.75
2022-10-18T02:27:40.116Z,102001.88
2022-10-18T02:27:53.319Z,102001.88
2022-10-18T02:28:06.621Z,102002.00
2022-10-18T02:28:19.561Z,102001.88
2022-10-18T02:28:32.563Z,101996.50
2022-10-18T02:28:47.164Z,102003.63
2022-10-18T02:29:01.824Z,102000.94
2022-10-18T02:29:14.701Z,102005.31
2022-10-18T02:29:27.576Z,102004.47
2022-10-18T02:29:42.176Z,101997.41
2022-10-18T02:29:55.119Z,101997.41
2022-10-18T02:30:09.495Z,102000.09
2022-10-18T02:30:26.035Z,102002.75
2022-10-18T02:30:47.355Z,102001.03
2022-10-18T02:31:10.123Z,101996.63
2022-10-18T02:31:27.422Z,102004.69
2022-10-18T02:31:44.343Z,102002.00
2022-10-18T02:32:07.199Z,101998.44
2022-10-18T02:32:26.265Z,102000.28
2022-10-18T02:32:41.858Z,101999.31
2022-10-18T02:32:58.761Z,101993.06
2022-10-18T02:33:16.550Z,102000.19
2022-10-18T02:33:34.192Z,101994.91
2022-10-18T02:33:53.558Z,102008.13
2022-10-18T02:34:12.168Z,102001.03
2022-10-18T02:34:29.217Z,102006.41
2022-10-18T02:34:46.801Z,101992.97
2022-10-18T02:35:03.727Z,101995.66
2022-10-18T02:35:21.900Z,102000.09
2022-10-18T02:35:41.222Z,101998.34
2022-10-18T02:36:01.289Z,102001.03
2022-10-18T02:36:20.137Z,102005.53
2022-10-18T02:36:38.820Z,102000.19
2022-10-18T02:36:53.964Z,101999.31
2022-10-18T02:37:08.751Z,102002.97
2022-10-18T02:37:22.540Z,102001.25
2022-10-18T02:37:38.246Z,102002.09
2022-10-18T02:37:53.936Z,102002.97
2022-10-18T02:38:09.741Z,102002.09
2022-10-18T02:38:25.514Z,102007.47
2022-10-18T02:38:41.996Z,101998.56
2022-10-18T02:39:01.592Z,101999.53
2022-10-18T02:39:18.108Z,102008.31
2022-10-18T02:39:34.747Z,102000.28
2022-10-18T02:39:50.347Z,102002.00
2022-10-18T02:40:04.700Z,102007.38
2022-10-18T02:40:19.234Z,102005.53
2022-10-18T02:40:32.055Z,102001.13
2022-10-18T02:40:44.757Z,102012.63
2022-10-18T02:40:57.586Z,102008.22
2022-10-18T02:41:10.187Z,102006.41
2022-10-18T02:41:24.174Z,102010.81
2022-10-18T02:41:36.955Z,102004.69
2022-10-18T02:41:49.836Z,102002.88
2022-10-18T02:42:06.708Z,102005.53
2022-10-18T02:42:19.345Z,102010.06
2022-10-18T02:42:34.834Z,102008.22
2022-10-18T02:42:49.442Z,102007.38
2022-10-18T02:43:02.251Z,102014.44
2022-10-18T02:43:14.939Z,102008.31
2022-10-18T02:43:28.575Z,101999.31
2022-10-18T02:43:41.188Z,102008.22
2022-10-18T02:43:54.206Z,102010.06
2022-10-18T02:44:07.123Z,102008.31
2022-10-18T02:44:21.875Z,102003.81
2022-10-18T02:44:34.724Z,102003.81
2022-10-18T02:44:48.329Z,102011.88
2022-10-18T02:45:01.007Z,102009.19
2022-10-18T02:45:14.567Z,102004.69
2022-10-18T02:45:27.627Z,102011.00
2022-10-18T02:45:40.423Z,102012.75
2022-10-18T02:45:53.487Z,102008.31
2022-10-18T02:46:07.627Z,102011.88
2022-10-18T02:46:22.253Z,102015.44
2022-10-18T02:46:35.381Z,102014.56
2022-10-18T02:46:48.171Z,102010.06
2022-10-18T02:47:00.880Z,102008.31
2022-10-18T02:47:14.637Z,102013.69
2022-10-18T02:47:28.281Z,102018.97
2022-10-18T02:47:41.072Z,102009.19
2022-10-18T02:47:54.933Z,102011.00
2022-10-18T02:48:08.060Z,102011.00
2022-10-18T02:48:20.901Z,102009.19
2022-10-18T02:48:33.545Z,102014.56
2022-10-18T02:48:46.217Z,102014.56
2022-10-18T02:48:58.906Z,102021.66
2022-10-18T02:49:11.533Z,102015.44
2022-10-18T02:49:25.339Z,102011.88
2022-10-18T02:49:37.969Z,102020.81
2022-10-18T02:49:50.610Z,102004.69
2022-10-18T02:50:03.368Z,102019.06
2022-10-18T02:50:16.125Z,102021.66
2022-10-18T02:50:28.819Z,102020.81
2022-10-18T02:50:41.457Z,102021.75
2022-10-18T02:50:54.091Z,102021.75
2022-10-18T02:51:06.859Z,102026.16
2022-10-18T02:51:23.757Z,102024.44
2022-10-18T02:51:36.449Z,102020.06
2022-10-18T02:51:50.794Z,102020.06
2022-10-18T02:52:03.840Z,102021.88
2022-10-18T02:52:16.454Z,102024.56
2022-10-18T02:52:29.100Z,102021.88
2022-10-18T02:52:41.786Z,102026.38
2022-10-18T02:52:55.583Z,102027.31
2022-10-18T02:53:08.218Z,102019.25
2022-10-18T02:53:21.111Z,102023.78
2022-10-18T02:53:33.735Z,102030.09
2022-10-18T02:53:46.524Z,102019.44
2022-10-18T02:53:59.210Z,102022.13
2022-10-18T02:54:11.889Z,102023.03
2022-10-18T02:54:24.755Z,102024.81
2022-10-18T02:54:38.390Z,102018.59
2022-10-18T02:54:51.270Z,102016.00
2022-10-18T02:55:04.922Z,102017.84
2022-10-18T02:55:18.012Z,102026.88
2022-10-18T02:55:30.695Z,102017.97
2022-10-18T02:55:43.343Z,102019.78
2022-10-18T02:55:55.960Z,102017.22
2022-10-18T02:56:10.236Z,102023.44
2022-10-18T02:56:22.928Z,102030.63
2022-10-18T02:56:35.684Z,102022.59
2022-10-18T02:56:48.379Z,102016.34
2022-10-18T02:57:01.019Z,102019.91
2022-10-18T02:57:13.863Z,102020.75
2022-10-18T02:57:26.502Z,102014.72
2022-10-18T02:57:40.172Z,102017.22
2022-10-18T02:57:52.849Z,102019.91
2022-10-18T02:58:05.495Z,102014.53
2022-10-18T02:58:18.146Z,102021.69
2022-10-18T02:58:30.813Z,102019.00
2022-10-18T02:58:43.452Z,102018.16
2022-10-18T02:58:56.116Z,102021.69
2022-10-18T02:59:09.782Z,102015.47
2022-10-18T02:59:22.455Z,102023.53
2022-10-18T02:59:35.079Z,102025.38
2022-10-18T02:59:47.724Z,102023.53
2022-10-18T03:00:00.471Z,102030.63
2022-10-18T03:00:15.295Z,102023.53
2022-10-18T03:00:28.018Z,102027.06
2022-10-18T03:00:40.730Z,102023.53
2022-10-18T03:00:53.342Z,102022.59
2022-10-18T03:01:08.060Z,102029.75
2022-10-18T03:01:20.773Z,102024.50
2022-10-18T03:01:33.595Z,102022.59
2022-10-18T03:01:47.377Z,102019.91
2022-10-18T03:02:00.233Z,102024.28
2022-10-18T03:02:12.886Z,102021.69
2022-10-18T03:02:25.563Z,102025.28